Terminal Aerodrome Forecast
Issued by NWS

Home | Current Version | Previous Version | Graphics & Text | Print | Product List | Glossary Off
Versions: 1 2 3 4 5 6 7 8 9 10 11 12 13 14 15 16 17 18 19 20 21 22 23 24 25 26 27 28 29 30 31 32 33 34 35 36 37 38 39 40 41 42 43 44 45 46 47 48 49 50

935
FTUS43 KDDC 190723 AAC
TAFHYS
TAF AMD
KHYS 190723Z 1907/2006 18010KT P6SM OVC004
     FM191000 16007KT 3/4SM BR OVC003
     FM191500 16006KT 1/2SM FG OVC003
     FM191600 17006KT P6SM OVC003
     FM192200 15005KT P6SM BKN020
     FM200200 VRB03KT P6SM BKN003=

USA.gov is the U.S. government's official web portal to all federal, state and local government web resources and services.